createdAt,value
2023-01-17T00:00:20.850Z,2.11
2023-01-17T00:00:39.477Z,2.11
2023-01-17T00:01:10.557Z,2.11
2023-01-17T00:01:41.430Z,2.11
2023-01-17T00:02:12.401Z,2.11
2023-01-17T00:02:43.516Z,2.11
2023-01-17T00:03:14.413Z,2.11
2023-01-17T00:03:45.476Z,2.11
2023-01-17T00:04:16.398Z,2.11
2023-01-17T00:04:48.396Z,2.11
2023-01-17T00:05:18.405Z,2.11
2023-01-17T00:05:49.430Z,2.11
2023-01-17T00:06:20.415Z,2.11
2023-01-17T00:06:51.450Z,2.11
2023-01-17T00:07:22.424Z,2.11
2023-01-17T00:07:53.437Z,2.11
2023-01-17T00:08:24.620Z,2.11
2023-01-17T00:08:55.428Z,2.11
2023-01-17T00:09:26.410Z,2.11
2023-01-17T00:09:58.402Z,2.11
2023-01-17T00:10:28.395Z,2.11
2023-01-17T00:10:59.405Z,2.11
2023-01-17T00:11:30.422Z,2.11
2023-01-17T00:12:01.390Z,2.11
2023-01-17T00:12:32.418Z,2.11
2023-01-17T00:13:03.528Z,2.11
2023-01-17T00:13:34.416Z,2.00
2023-01-17T00:14:05.428Z,2.00
2023-01-17T00:14:36.412Z,1.88
2023-01-17T00:15:20.831Z,1.88
2023-01-17T00:15:38.392Z,1.88
2023-01-17T00:16:09.418Z,1.88
2023-01-17T00:16:40.406Z,1.88
2023-01-17T00:17:11.464Z,1.77
2023-01-17T00:17:42.415Z,1.77
2023-01-17T00:18:13.415Z,1.77
2023-01-17T00:18:44.399Z,1.77
2023-01-17T00:19:15.433Z,1.77
2023-01-17T00:19:46.393Z,1.77
2023-01-17T00:20:20.091Z,1.77
2023-01-17T00:20:48.395Z,1.77
2023-01-17T00:21:19.449Z,1.77
2023-01-17T00:21:50.445Z,1.77
2023-01-17T00:22:21.396Z,1.77
2023-01-17T00:22:52.390Z,1.77
2023-01-17T00:23:23.391Z,1.77
2023-01-17T00:23:54.388Z,1.77
2023-01-17T00:24:25.409Z,1.77
2023-01-17T00:24:56.474Z,1.77
2023-01-17T00:25:28.391Z,1.77
2023-01-17T00:25:58.395Z,1.77
2023-01-17T00:26:29.399Z,1.77
2023-01-17T00:27:00.475Z,1.77
2023-01-17T00:27:31.407Z,1.72
2023-01-17T00:28:02.554Z,1.72
2023-01-17T00:28:33.420Z,1.72
2023-01-17T00:29:04.440Z,1.72
2023-01-17T00:29:35.380Z,1.72
2023-01-17T00:30:18.870Z,1.72
2023-01-17T00:30:38.408Z,1.72
2023-01-17T00:31:08.538Z,1.72
2023-01-17T00:31:39.658Z,1.72
2023-01-17T00:32:10.389Z,1.72
2023-01-17T00:32:41.418Z,1.72
2023-01-17T00:33:12.439Z,1.72
2023-01-17T00:33:43.427Z,1.72
2023-01-17T00:34:14.396Z,1.72
2023-01-17T00:34:45.381Z,1.72
2023-01-17T00:35:16.380Z,1.72
2023-01-17T00:35:48.424Z,1.72
2023-01-17T00:36:18.395Z,1.61
2023-01-17T00:36:49.404Z,1.61
2023-01-17T00:37:20.376Z,1.61
2023-01-17T00:37:51.398Z,1.61
2023-01-17T00:38:22.417Z,1.61
2023-01-17T00:38:53.421Z,1.50
2023-01-17T00:39:24.395Z,1.50
2023-01-17T00:39:55.415Z,1.50
2023-01-17T00:40:26.380Z,1.50
2023-01-17T00:40:58.379Z,1.50
2023-01-17T00:41:30.422Z,1.50
2023-01-17T00:41:59.399Z,1.50
2023-01-17T00:42:30.369Z,1.50
2023-01-17T00:43:01.378Z,1.50
2023-01-17T00:43:32.497Z,1.50
2023-01-17T00:44:03.472Z,1.50
2023-01-17T00:44:34.461Z,1.50
2023-01-17T00:45:17.736Z,1.50
2023-01-17T00:45:36.383Z,1.50
2023-01-17T00:46:08.446Z,1.50
2023-01-17T00:46:38.498Z,1.50
2023-01-17T00:47:09.377Z,1.50
2023-01-17T00:47:40.411Z,1.50
2023-01-17T00:48:11.377Z,1.50
2023-01-17T00:48:42.433Z,1.50
2023-01-17T00:49:13.379Z,1.50
2023-01-17T00:49:44.385Z,1.50
2023-01-17T00:50:15.430Z,1.50
2023-01-17T00:50:46.440Z,1.50
2023-01-17T00:51:18.389Z,1.50
2023-01-17T00:51:48.392Z,1.61
2023-01-17T00:52:19.371Z,1.61
2023-01-17T00:52:50.376Z,1.61
2023-01-17T00:53:21.381Z,1.61
2023-01-17T00:53:52.407Z,1.61
2023-01-17T00:54:23.379Z,1.61
2023-01-17T00:54:54.552Z,1.61
2023-01-17T00:55:25.371Z,1.61
2023-01-17T00:55:56.361Z,1.61
2023-01-17T00:56:28.415Z,1.61
2023-01-17T00:56:58.381Z,1.61
2023-01-17T00:57:29.362Z,1.61
2023-01-17T00:58:00.509Z,1.61
2023-01-17T00:58:31.410Z,1.61
2023-01-17T00:59:02.516Z,1.61
2023-01-17T00:59:33.384Z,1.61
2023-01-17T01:00:17.047Z,1.61
2023-01-17T01:00:35.490Z,1.61
2023-01-17T01:01:06.581Z,1.61
2023-01-17T01:01:38.614Z,1.72
2023-01-17T01:02:08.577Z,1.72
2023-01-17T01:02:39.412Z,1.72
2023-01-17T01:03:10.381Z,1.72
2023-01-17T01:03:41.428Z,1.72
2023-01-17T01:04:12.383Z,1.72
2023-01-17T01:04:43.390Z,1.61
2023-01-17T01:05:14.428Z,1.61
2023-01-17T01:05:45.370Z,1.61
2023-01-17T01:06:16.365Z,1.61
2023-01-17T01:06:48.392Z,1.61
2023-01-17T01:07:18.417Z,1.61
2023-01-17T01:07:49.452Z,1.61
2023-01-17T01:08:20.376Z,1.61
2023-01-17T01:08:51.396Z,1.61
2023-01-17T01:09:22.388Z,1.72
2023-01-17T01:09:53.419Z,1.61
2023-01-17T01:10:24.405Z,1.61
2023-01-17T01:10:55.431Z,1.61
2023-01-17T01:11:26.387Z,1.61
2023-01-17T01:11:58.389Z,1.61
2023-01-17T01:12:28.421Z,1.72
2023-01-17T01:12:59.418Z,1.72
2023-01-17T01:13:30.368Z,1.72
2023-01-17T01:14:01.427Z,1.72
2023-01-17T01:14:32.482Z,1.72
2023-01-17T01:15:15.828Z,1.72
2023-01-17T01:15:34.380Z,1.72
2023-01-17T01:16:05.439Z,1.72
2023-01-17T01:16:36.434Z,1.61
2023-01-17T01:17:08.519Z,1.61
2023-01-17T01:17:38.423Z,1.61
2023-01-17T01:18:09.390Z,1.61
2023-01-17T01:18:40.452Z,1.61
2023-01-17T01:19:11.359Z,1.61
2023-01-17T01:19:42.411Z,1.61
2023-01-17T01:20:13.411Z,1.61
2023-01-17T01:20:44.375Z,1.61
2023-01-17T01:21:15.365Z,1.61
2023-01-17T01:21:46.450Z,1.61
2023-01-17T01:22:18.375Z,1.61
2023-01-17T01:22:48.441Z,1.61
2023-01-17T01:23:19.463Z,1.61
2023-01-17T01:23:50.378Z,1.61
2023-01-17T01:24:21.378Z,1.61
2023-01-17T01:24:52.374Z,1.61
2023-01-17T01:25:23.406Z,1.61
2023-01-17T01:25:54.357Z,1.61
2023-01-17T01:26:25.367Z,1.61
2023-01-17T01:26:56.367Z,1.61
2023-01-17T01:27:28.420Z,1.61
2023-01-17T01:27:58.382Z,1.61
2023-01-17T01:28:29.402Z,1.61
2023-01-17T01:29:00.377Z,1.61
2023-01-17T01:29:31.385Z,1.61
2023-01-17T01:30:14.903Z,1.61
2023-01-17T01:30:33.444Z,1.61
2023-01-17T01:31:04.402Z,1.61
2023-01-17T01:31:35.521Z,1.61
2023-01-17T01:32:06.378Z,1.61
2023-01-17T01:32:38.435Z,1.61
2023-01-17T01:33:08.385Z,1.61
2023-01-17T01:33:39.368Z,1.61
2023-01-17T01:34:10.380Z,1.61
2023-01-17T01:34:41.411Z,1.61
2023-01-17T01:35:12.370Z,1.61
2023-01-17T01:35:43.373Z,1.61
2023-01-17T01:36:14.385Z,1.61
2023-01-17T01:36:45.368Z,1.61
2023-01-17T01:37:16.378Z,1.61
2023-01-17T01:37:48.468Z,1.61
2023-01-17T01:38:18.380Z,1.61
2023-01-17T01:38:49.390Z,1.61
2023-01-17T01:39:20.376Z,1.61
2023-01-17T01:39:51.377Z,1.61
2023-01-17T01:40:22.384Z,1.61
2023-01-17T01:40:53.400Z,1.61
2023-01-17T01:41:24.359Z,1.61
2023-01-17T01:41:56.403Z,1.50
2023-01-17T01:42:26.366Z,1.50
2023-01-17T01:42:58.503Z,1.50
2023-01-17T01:43:28.379Z,1.50
2023-01-17T01:43:59.356Z,1.50
2023-01-17T01:44:30.418Z,1.50
2023-01-17T01:45:13.729Z,1.50
2023-01-17T01:45:32.534Z,1.50
2023-01-17T01:46:03.439Z,1.50
2023-01-17T01:46:34.422Z,1.50
2023-01-17T01:47:05.396Z,1.50
2023-01-17T01:47:36.474Z,1.50
2023-01-17T01:48:08.399Z,1.50
2023-01-17T01:48:38.357Z,1.50
2023-01-17T01:49:09.420Z,1.50
2023-01-17T01:49:40.358Z,1.50
2023-01-17T01:50:11.365Z,1.50
2023-01-17T01:50:42.424Z,1.50
2023-01-17T01:51:13.408Z,1.50
2023-01-17T01:51:44.373Z,1.50
2023-01-17T01:52:15.389Z,1.50
2023-01-17T01:52:46.377Z,1.50
2023-01-17T01:53:18.365Z,1.50
2023-01-17T01:53:48.351Z,1.50
2023-01-17T01:54:19.413Z,1.50
2023-01-17T01:54:50.356Z,1.50
2023-01-17T01:55:21.352Z,1.50
2023-01-17T01:55:52.431Z,1.50
2023-01-17T01:56:23.380Z,1.50
2023-01-17T01:56:54.345Z,1.50
2023-01-17T01:57:25.351Z,1.50
2023-01-17T01:57:56.403Z,1.50
2023-01-17T01:58:28.365Z,1.50
2023-01-17T01:58:58.361Z,1.50
2023-01-17T01:59:29.407Z,1.50
2023-01-17T02:00:35.795Z,1.50
2023-01-17T02:01:04.640Z,1.50
2023-01-17T02:01:35.831Z,1.50
2023-01-17T02:02:05.247Z,1.50
2023-01-17T02:02:35.497Z,1.50
2023-01-17T02:03:07.565Z,1.50
2023-01-17T02:03:40.163Z,1.50
2023-01-17T02:04:12.824Z,1.50
2023-01-17T02:04:39.447Z,1.50
2023-01-17T02:05:11.033Z,1.50
2023-01-17T02:05:41.463Z,1.50
2023-01-17T02:06:12.546Z,1.50
2023-01-17T02:06:43.487Z,1.50
2023-01-17T02:07:14.490Z,1.50
2023-01-17T02:07:45.738Z,1.50
2023-01-17T02:08:16.447Z,1.50
2023-01-17T02:08:48.444Z,1.50
2023-01-17T02:09:18.393Z,1.50
2023-01-17T02:09:49.366Z,1.50
2023-01-17T02:10:20.579Z,1.50
2023-01-17T02:10:51.391Z,1.50
2023-01-17T02:11:22.388Z,1.50
2023-01-17T02:11:53.373Z,1.50
2023-01-17T02:12:24.368Z,1.50
2023-01-17T02:12:55.387Z,1.50
2023-01-17T02:13:26.365Z,1.50
2023-01-17T02:13:58.392Z,1.50
2023-01-17T02:14:28.358Z,1.38
2023-01-17T02:14:59.394Z,1.38
2023-01-17T02:15:42.941Z,1.38
2023-01-17T02:16:01.628Z,1.38
2023-01-17T02:16:32.434Z,1.38
2023-01-17T02:17:03.405Z,1.27
2023-01-17T02:17:34.421Z,1.27
2023-01-17T02:18:05.419Z,1.27
2023-01-17T02:18:36.469Z,1.27
2023-01-17T02:19:08.420Z,1.27
2023-01-17T02:19:38.363Z,1.27
2023-01-17T02:20:09.443Z,1.27
2023-01-17T02:20:40.369Z,1.27
2023-01-17T02:21:11.364Z,1.27
2023-01-17T02:21:42.438Z,1.27
2023-01-17T02:22:13.482Z,1.27
2023-01-17T02:22:44.363Z,1.27
2023-01-17T02:23:15.455Z,1.27
2023-01-17T02:23:46.401Z,1.27
2023-01-17T02:24:18.466Z,1.22
2023-01-17T02:24:48.355Z,1.22
2023-01-17T02:25:19.508Z,1.22
2023-01-17T02:25:50.519Z,1.22
2023-01-17T02:26:21.522Z,1.22
2023-01-17T02:26:52.338Z,1.22
2023-01-17T02:27:23.357Z,1.22
2023-01-17T02:27:54.347Z,1.22
2023-01-17T02:28:25.363Z,1.22
2023-01-17T02:28:56.404Z,1.22
2023-01-17T02:29:28.350Z,1.22
2023-01-17T02:29:58.416Z,1.22
2023-01-17T02:30:42.006Z,1.22
2023-01-17T02:31:00.458Z,1.22
2023-01-17T02:31:31.507Z,1.22
2023-01-17T02:32:02.455Z,1.22
2023-01-17T02:32:33.349Z,1.22
2023-01-17T02:33:04.385Z,1.22
2023-01-17T02:33:35.398Z,1.22
2023-01-17T02:34:06.381Z,1.22
2023-01-17T02:34:38.394Z,1.22
2023-01-17T02:35:08.408Z,1.22
2023-01-17T02:35:39.427Z,1.22
2023-01-17T02:36:10.372Z,1.22
2023-01-17T02:36:41.364Z,1.22
2023-01-17T02:37:12.383Z,1.22
2023-01-17T02:37:43.432Z,1.22
2023-01-17T02:38:14.369Z,1.22
2023-01-17T02:38:45.336Z,1.22
2023-01-17T02:39:16.411Z,1.22
2023-01-17T02:39:48.349Z,1.22
2023-01-17T02:40:18.396Z,1.22
2023-01-17T02:40:49.347Z,1.22
2023-01-17T02:41:20.393Z,1.22
2023-01-17T02:41:51.360Z,1.22
2023-01-17T02:42:22.383Z,1.22
2023-01-17T02:42:53.331Z,1.22
2023-01-17T02:43:24.373Z,1.22
2023-01-17T02:43:55.350Z,1.27
2023-01-17T02:44:26.350Z,1.27
2023-01-17T02:44:58.427Z,1.27
2023-01-17T02:45:40.699Z,1.27
2023-01-17T02:45:59.417Z,1.27
2023-01-17T02:46:30.358Z,1.27
2023-01-17T02:47:01.425Z,1.27
2023-01-17T02:47:32.413Z,1.27
2023-01-17T02:48:03.431Z,1.27
2023-01-17T02:48:34.356Z,1.27
2023-01-17T02:49:05.383Z,1.27
2023-01-17T02:49:36.333Z,1.27
2023-01-17T02:50:08.442Z,1.27
2023-01-17T02:50:38.393Z,1.27
2023-01-17T02:51:09.349Z,1.27
2023-01-17T02:51:40.338Z,1.27
2023-01-17T02:52:11.349Z,1.27
2023-01-17T02:52:42.415Z,1.27
2023-01-17T02:53:13.366Z,1.27
2023-01-17T02:53:44.353Z,1.27
2023-01-17T02:54:15.343Z,1.38
2023-01-17T02:54:46.543Z,1.38
2023-01-17T02:55:18.360Z,1.38
2023-01-17T02:55:48.387Z,1.38
2023-01-17T02:56:19.356Z,1.38
2023-01-17T02:56:50.376Z,1.38
2023-01-17T02:57:21.346Z,1.38
2023-01-17T02:57:52.325Z,1.38
2023-01-17T02:58:23.383Z,1.38
2023-01-17T02:58:54.355Z,1.38
2023-01-17T02:59:25.350Z,1.38
2023-01-17T02:59:56.338Z,1.38
2023-01-17T03:00:40.723Z,1.38
2023-01-17T03:00:58.449Z,1.38
2023-01-17T03:01:29.553Z,1.38
2023-01-17T03:02:00.537Z,1.38
2023-01-17T03:02:32.534Z,1.38
2023-01-17T03:03:02.684Z,1.38
2023-01-17T03:03:33.333Z,1.38
2023-01-17T03:04:04.366Z,1.38
2023-01-17T03:04:35.387Z,1.38
2023-01-17T03:05:06.338Z,1.38
2023-01-17T03:05:38.361Z,1.38
2023-01-17T03:06:08.393Z,1.38
2023-01-17T03:06:39.378Z,1.38
2023-01-17T03:07:10.343Z,1.38
2023-01-17T03:07:41.344Z,1.38
2023-01-17T03:08:12.400Z,1.38
2023-01-17T03:08:43.376Z,1.38
2023-01-17T03:09:14.345Z,1.38
2023-01-17T03:09:45.331Z,1.38
2023-01-17T03:10:16.442Z,1.38
2023-01-17T03:10:48.336Z,1.38
2023-01-17T03:11:18.372Z,1.38
2023-01-17T03:11:49.336Z,1.38
2023-01-17T03:12:20.356Z,1.38
2023-01-17T03:12:51.446Z,1.38
2023-01-17T03:13:22.395Z,1.38
2023-01-17T03:13:53.355Z,1.38
2023-01-17T03:14:24.407Z,1.38
2023-01-17T03:14:55.397Z,1.27
2023-01-17T03:15:38.756Z,1.27
2023-01-17T03:15:58.396Z,1.38
2023-01-17T03:16:28.454Z,1.38
2023-01-17T03:16:59.389Z,1.38
2023-01-17T03:17:30.324Z,1.38
2023-01-17T03:18:01.635Z,1.38
2023-01-17T03:18:32.355Z,1.38
2023-01-17T03:19:03.393Z,1.38
2023-01-17T03:19:34.383Z,1.38
2023-01-17T03:20:05.371Z,1.38
2023-01-17T03:20:36.416Z,1.38
2023-01-17T03:21:08.412Z,1.38
2023-01-17T03:21:38.376Z,1.38
2023-01-17T03:22:09.368Z,1.38
2023-01-17T03:22:40.368Z,1.38
2023-01-17T03:23:11.386Z,1.38
2023-01-17T03:23:42.398Z,1.38
2023-01-17T03:24:13.360Z,1.38
2023-01-17T03:24:44.330Z,1.38
2023-01-17T03:25:15.333Z,1.38
2023-01-17T03:25:46.354Z,1.38
2023-01-17T03:26:18.339Z,1.38
2023-01-17T03:26:48.347Z,1.38
2023-01-17T03:27:19.342Z,1.38
2023-01-17T03:27:50.387Z,1.38
2023-01-17T03:28:21.331Z,1.38
2023-01-17T03:28:52.355Z,1.38
2023-01-17T03:29:23.368Z,1.38
2023-01-17T03:29:54.345Z,1.38
2023-01-17T03:30:37.736Z,1.38
2023-01-17T03:30:56.473Z,1.38
2023-01-17T03:31:28.387Z,1.38
2023-01-17T03:31:58.360Z,1.38
2023-01-17T03:32:29.339Z,1.38
2023-01-17T03:33:00.371Z,1.38
2023-01-17T03:33:31.366Z,1.38
2023-01-17T03:34:02.455Z,1.38
2023-01-17T03:34:33.333Z,1.38
2023-01-17T03:35:04.405Z,1.38
2023-01-17T03:35:35.361Z,1.38
2023-01-17T03:36:06.353Z,1.38
2023-01-17T03:36:38.449Z,1.38
2023-01-17T03:37:08.395Z,1.38
2023-01-17T03:37:39.388Z,1.38
2023-01-17T03:38:10.333Z,1.38
2023-01-17T03:38:41.355Z,1.27
2023-01-17T03:39:12.363Z,1.27
2023-01-17T03:39:43.375Z,1.27
2023-01-17T03:40:14.363Z,1.38
2023-01-17T03:40:45.385Z,1.38
2023-01-17T03:41:16.483Z,1.38
2023-01-17T03:41:48.352Z,1.38
2023-01-17T03:42:18.351Z,1.38
2023-01-17T03:42:49.506Z,1.38
2023-01-17T03:43:20.400Z,1.38
2023-01-17T03:43:51.333Z,1.27
2023-01-17T03:44:22.345Z,1.27
2023-01-17T03:44:53.372Z,1.38
2023-01-17T03:45:36.712Z,1.38
2023-01-17T03:45:55.413Z,1.38
2023-01-17T03:46:26.362Z,1.38
2023-01-17T03:46:58.324Z,1.38
2023-01-17T03:47:28.357Z,1.38
2023-01-17T03:47:59.351Z,1.38
2023-01-17T03:48:30.376Z,1.38
2023-01-17T03:49:01.365Z,1.38
2023-01-17T03:49:32.336Z,1.27
2023-01-17T03:50:03.364Z,1.27
2023-01-17T03:50:34.374Z,1.27
2023-01-17T03:51:05.426Z,1.27
2023-01-17T03:51:36.329Z,1.38
2023-01-17T03:52:08.416Z,1.38
2023-01-17T03:52:38.419Z,1.38
2023-01-17T03:53:09.411Z,1.38
2023-01-17T03:53:40.343Z,1.38
2023-01-17T03:54:11.338Z,1.38
2023-01-17T03:54:42.317Z,1.38
2023-01-17T03:55:13.348Z,1.38
2023-01-17T03:55:44.341Z,1.38
2023-01-17T03:56:15.344Z,1.38
2023-01-17T03:56:46.364Z,1.38
2023-01-17T03:57:18.331Z,1.38
2023-01-17T03:57:48.373Z,1.38
2023-01-17T03:58:19.325Z,1.27
2023-01-17T03:58:50.346Z,1.27
2023-01-17T03:59:21.356Z,1.27
2023-01-17T03:59:52.333Z,1.27
2023-01-17T04:00:35.810Z,1.27
2023-01-17T04:00:54.477Z,1.27
2023-01-17T04:01:25.598Z,1.27
2023-01-17T04:01:56.397Z,1.27
2023-01-17T04:02:28.392Z,1.27
2023-01-17T04:02:58.373Z,1.27
2023-01-17T04:03:29.350Z,1.27
2023-01-17T04:04:00.388Z,1.27
2023-01-17T04:04:31.516Z,1.27
2023-01-17T04:05:02.482Z,1.27
2023-01-17T04:05:33.336Z,1.27
2023-01-17T04:06:04.326Z,1.27
2023-01-17T04:06:35.396Z,1.27
2023-01-17T04:07:06.398Z,1.27
2023-01-17T04:07:38.385Z,1.27
2023-01-17T04:08:08.441Z,1.27
2023-01-17T04:08:39.339Z,1.27
2023-01-17T04:09:10.329Z,1.27
2023-01-17T04:09:41.312Z,1.27
2023-01-17T04:10:12.344Z,1.27
2023-01-17T04:10:43.346Z,1.27
2023-01-17T04:11:14.337Z,1.27
2023-01-17T04:11:45.325Z,1.27
2023-01-17T04:12:16.377Z,1.27
2023-01-17T04:12:48.296Z,1.27
2023-01-17T04:13:18.353Z,1.27
2023-01-17T04:13:49.323Z,1.27
2023-01-17T04:14:20.367Z,1.27
2023-01-17T04:14:51.351Z,1.22
2023-01-17T04:15:34.661Z,1.22
2023-01-17T04:15:53.450Z,1.22
2023-01-17T04:16:24.387Z,1.22
2023-01-17T04:16:55.372Z,1.22
2023-01-17T04:17:26.352Z,1.22
2023-01-17T04:17:58.317Z,1.22
2023-01-17T04:18:28.355Z,1.22
2023-01-17T04:18:59.327Z,1.22
2023-01-17T04:19:30.318Z,1.22
2023-01-17T04:20:01.398Z,1.22
2023-01-17T04:20:32.326Z,1.22
2023-01-17T04:21:03.394Z,1.22
2023-01-17T04:21:34.310Z,1.22
2023-01-17T04:22:05.414Z,1.22
2023-01-17T04:22:36.306Z,1.22
2023-01-17T04:23:08.513Z,1.22
2023-01-17T04:23:38.381Z,1.22
2023-01-17T04:24:09.373Z,1.22
2023-01-17T04:24:40.385Z,1.22
2023-01-17T04:25:11.332Z,1.22
2023-01-17T04:25:42.340Z,1.22
2023-01-17T04:26:13.291Z,1.22
2023-01-17T04:26:44.380Z,1.22
2023-01-17T04:27:15.306Z,1.22
2023-01-17T04:27:46.326Z,1.22
2023-01-17T04:28:18.395Z,1.22
2023-01-17T04:28:48.400Z,1.22
2023-01-17T04:29:19.325Z,1.22
2023-01-17T04:29:50.315Z,1.22
2023-01-17T04:30:33.693Z,1.22
2023-01-17T04:30:52.395Z,1.22
2023-01-17T04:31:23.409Z,1.22
2023-01-17T04:31:54.451Z,1.22
2023-01-17T04:32:25.306Z,1.22
2023-01-17T04:32:56.337Z,1.22
2023-01-17T04:33:28.323Z,1.22
2023-01-17T04:33:58.369Z,1.22
2023-01-17T04:34:29.323Z,1.22
2023-01-17T04:35:00.364Z,1.22
2023-01-17T04:35:31.413Z,1.22
2023-01-17T04:36:02.406Z,1.11
2023-01-17T04:36:33.367Z,1.11
2023-01-17T04:37:04.390Z,1.11
2023-01-17T04:37:35.333Z,1.11
2023-01-17T04:38:06.305Z,1.11
2023-01-17T04:38:38.457Z,1.11
2023-01-17T04:39:13.374Z,1.11
2023-01-17T04:39:39.353Z,1.11
2023-01-17T04:40:10.354Z,1.11
2023-01-17T04:40:41.322Z,1.11
2023-01-17T04:41:12.316Z,1.11
2023-01-17T04:41:43.341Z,1.11
2023-01-17T04:42:14.385Z,1.11
2023-01-17T04:42:45.317Z,1.11
2023-01-17T04:43:16.445Z,1.11
2023-01-17T04:43:48.311Z,1.11
2023-01-17T04:44:18.308Z,1.11
2023-01-17T04:44:49.365Z,1.11
2023-01-17T04:45:32.714Z,1.11
2023-01-17T04:45:51.341Z,1.11
2023-01-17T04:46:22.334Z,1.11
2023-01-17T04:46:53.397Z,1.11
2023-01-17T04:47:24.332Z,1.00
2023-01-17T04:47:55.315Z,1.00
2023-01-17T04:48:26.313Z,1.00
2023-01-17T04:48:58.288Z,1.00
2023-01-17T04:49:28.352Z,1.00
2023-01-17T04:49:59.321Z,1.00
2023-01-17T04:50:30.328Z,1.00
2023-01-17T04:51:01.542Z,1.00
2023-01-17T04:51:32.382Z,1.00
2023-01-17T04:52:03.389Z,1.00
2023-01-17T04:52:34.374Z,1.00
2023-01-17T04:53:05.348Z,1.00
2023-01-17T04:53:36.346Z,1.00
2023-01-17T04:54:08.343Z,1.00
2023-01-17T04:54:38.428Z,.88
2023-01-17T04:55:09.330Z,.88
2023-01-17T04:55:40.334Z,.88
2023-01-17T04:56:11.325Z,.88
2023-01-17T04:56:42.310Z,.88
2023-01-17T04:57:13.312Z,.88
2023-01-17T04:57:44.375Z,.88
2023-01-17T04:58:15.305Z,.88
2023-01-17T04:58:46.329Z,.88
2023-01-17T04:59:18.300Z,.88
2023-01-17T04:59:48.353Z,.88
2023-01-17T05:00:31.667Z,.88
2023-01-17T05:00:50.370Z,.88
2023-01-17T05:01:21.465Z,.88
2023-01-17T05:01:52.553Z,.88
2023-01-17T05:02:23.420Z,.88
2023-01-17T05:02:54.386Z,.88
2023-01-17T05:03:25.372Z,.88
2023-01-17T05:03:56.301Z,.88
2023-01-17T05:04:28.303Z,.88
2023-01-17T05:04:58.338Z,.88
2023-01-17T05:05:29.372Z,.88
2023-01-17T05:06:00.404Z,.88
2023-01-17T05:06:31.321Z,.88
2023-01-17T05:07:02.520Z,.88
2023-01-17T05:07:35.657Z,.88
2023-01-17T05:08:04.344Z,.77
2023-01-17T05:08:35.311Z,.77
2023-01-17T05:09:06.347Z,.77
2023-01-17T05:09:38.351Z,.77
2023-01-17T05:10:08.382Z,.77
2023-01-17T05:10:39.352Z,.77
2023-01-17T05:11:10.338Z,.77
2023-01-17T05:11:41.372Z,.72
2023-01-17T05:12:12.304Z,.72
2023-01-17T05:12:43.357Z,.72
2023-01-17T05:13:14.314Z,.61
2023-01-17T05:13:45.297Z,.61
2023-01-17T05:14:16.531Z,.61
2023-01-17T05:14:48.333Z,.61
2023-01-17T05:15:30.741Z,.61
2023-01-17T05:15:49.386Z,.50
2023-01-17T05:16:20.297Z,.50
2023-01-17T05:16:51.309Z,.50
2023-01-17T05:17:22.301Z,.50
2023-01-17T05:17:53.352Z,.50
2023-01-17T05:18:24.307Z,.38
2023-01-17T05:18:55.360Z,.38
2023-01-17T05:19:26.297Z,.38
2023-01-17T05:19:58.310Z,.38
2023-01-17T05:20:28.312Z,.38
2023-01-17T05:20:59.341Z,.27
2023-01-17T05:21:30.319Z,.27
2023-01-17T05:22:01.367Z,.27
2023-01-17T05:22:32.300Z,.27
2023-01-17T05:23:03.386Z,.27
2023-01-17T05:23:35.403Z,.27
2023-01-17T05:24:05.315Z,.22
2023-01-17T05:24:36.305Z,.22
2023-01-17T05:25:08.361Z,.22
2023-01-17T05:25:38.384Z,.22
2023-01-17T05:26:09.353Z,.22
2023-01-17T05:26:40.303Z,.22
2023-01-17T05:27:11.316Z,.22
2023-01-17T05:27:42.309Z,.22
2023-01-17T05:28:13.349Z,.22
2023-01-17T05:28:44.296Z,.11
2023-01-17T05:29:15.302Z,.11
2023-01-17T05:29:46.344Z,.11
2023-01-17T05:30:30.700Z,.11
2023-01-17T05:30:48.371Z,.11
2023-01-17T05:31:19.409Z,.11
2023-01-17T05:31:50.309Z,0
2023-01-17T05:32:21.303Z,0
2023-01-17T05:32:52.321Z,0
2023-01-17T05:33:23.326Z,0
2023-01-17T05:33:54.303Z,0
2023-01-17T05:34:25.318Z,0
2023-01-17T05:34:56.346Z,0
2023-01-17T05:35:28.289Z,0
2023-01-17T05:35:58.321Z,-.11
2023-01-17T05:36:29.409Z,-.11
2023-01-17T05:37:00.372Z,-.11
2023-01-17T05:37:31.320Z,-.11
2023-01-17T05:38:02.408Z,-.11
2023-01-17T05:38:33.329Z,-.11
2023-01-17T05:39:04.316Z,-.11
2023-01-17T05:39:35.311Z,-.11
2023-01-17T05:40:06.395Z,-.11
2023-01-17T05:40:38.353Z,-.11
2023-01-17T05:41:08.373Z,-.11
2023-01-17T05:41:39.308Z,-.11
2023-01-17T05:42:10.293Z,-.11
2023-01-17T05:42:41.297Z,-.11
2023-01-17T05:43:12.319Z,-.11
2023-01-17T05:43:43.344Z,-.22
2023-01-17T05:44:14.284Z,-.22
2023-01-17T05:44:45.283Z,-.22
2023-01-17T05:45:28.611Z,-.11
2023-01-17T05:45:48.278Z,-.11
2023-01-17T05:46:18.420Z,-.11
2023-01-17T05:46:49.316Z,-.11
2023-01-17T05:47:20.304Z,-.11
2023-01-17T05:47:51.363Z,-.22
2023-01-17T05:48:22.298Z,-.22
2023-01-17T05:48:53.316Z,-.22
2023-01-17T05:49:24.363Z,-.27
2023-01-17T05:49:55.301Z,-.27
2023-01-17T05:50:26.289Z,-.27
2023-01-17T05:50:58.321Z,-.27
2023-01-17T05:51:28.289Z,-.27
2023-01-17T05:51:59.366Z,-.27
2023-01-17T05:52:30.287Z,-.27
2023-01-17T05:53:01.309Z,-.27
2023-01-17T05:53:32.282Z,-.27
2023-01-17T05:54:03.399Z,-.27
2023-01-17T05:54:34.319Z,-.27
2023-01-17T05:55:05.371Z,-.27
2023-01-17T05:55:36.315Z,-.27
2023-01-17T05:56:08.333Z,-.27
2023-01-17T05:56:38.332Z,-.27
2023-01-17T05:57:09.315Z,-.38
2023-01-17T05:57:40.316Z,-.38
2023-01-17T05:58:11.341Z,-.38
2023-01-17T05:58:42.317Z,-.38
2023-01-17T05:59:14.367Z,-.38
2023-01-17T05:59:44.351Z,-.38
2023-01-17T06:00:27.667Z,-.38
2023-01-17T06:00:46.470Z,-.38
2023-01-17T06:01:18.365Z,-.38
2023-01-17T06:01:48.467Z,-.38
2023-01-17T06:02:19.328Z,-.38
2023-01-17T06:02:50.453Z,-.38
2023-01-17T06:03:21.287Z,-.38
2023-01-17T06:03:52.370Z,-.38
2023-01-17T06:04:23.309Z,-.38
2023-01-17T06:04:54.356Z,-.38
2023-01-17T06:05:25.342Z,-.38
2023-01-17T06:05:56.296Z,-.38
2023-01-17T06:06:28.279Z,-.38
2023-01-17T06:06:58.377Z,-.38
2023-01-17T06:07:29.308Z,-.38
2023-01-17T06:08:00.330Z,-.38
2023-01-17T06:08:31.309Z,-.38
2023-01-17T06:09:02.400Z,-.38
2023-01-17T06:09:33.307Z,-.38
2023-01-17T06:10:04.409Z,-.38
2023-01-17T06:10:35.305Z,-.38
2023-01-17T06:11:06.303Z,-.27
2023-01-17T06:11:38.281Z,-.27
2023-01-17T06:12:08.359Z,-.22
2023-01-17T06:12:39.357Z,-.22
2023-01-17T06:13:10.291Z,-.22
2023-01-17T06:13:41.301Z,-.22
2023-01-17T06:14:12.348Z,-.22
2023-01-17T06:14:43.300Z,-.22
2023-01-17T06:15:26.640Z,-.22
2023-01-17T06:15:45.344Z,-.22
2023-01-17T06:16:16.403Z,-.22
2023-01-17T06:16:48.349Z,-.22
2023-01-17T06:17:18.293Z,-.22
2023-01-17T06:17:49.298Z,-.22
2023-01-17T06:18:20.323Z,-.22
2023-01-17T06:18:51.350Z,-.22
2023-01-17T06:19:22.277Z,-.22
2023-01-17T06:19:53.283Z,-.22
2023-01-17T06:20:24.308Z,-.22
2023-01-17T06:20:55.325Z,-.22
2023-01-17T06:21:26.301Z,-.11
2023-01-17T06:21:58.302Z,-.11
2023-01-17T06:22:28.345Z,-.11
2023-01-17T06:22:59.322Z,-.11
2023-01-17T06:23:30.277Z,-.11
2023-01-17T06:24:03.920Z,-.11
2023-01-17T06:24:32.396Z,-.11
2023-01-17T06:25:03.385Z,-.11
2023-01-17T06:25:34.297Z,-.11
2023-01-17T06:26:05.299Z,-.11
2023-01-17T06:26:36.319Z,-.11
2023-01-17T06:27:08.311Z,-.11
2023-01-17T06:27:38.306Z,-.11
2023-01-17T06:28:09.306Z,-.11
2023-01-17T06:28:40.348Z,-.11
2023-01-17T06:29:11.287Z,-.11
2023-01-17T06:29:42.293Z,-.11
2023-01-17T06:30:25.675Z,-.11
2023-01-17T06:30:44.266Z,-.11
2023-01-17T06:31:15.320Z,-.11
2023-01-17T06:31:46.336Z,-.11
2023-01-17T06:32:18.297Z,-.11
2023-01-17T06:32:48.335Z,-.11
2023-01-17T06:33:19.309Z,-.11
2023-01-17T06:33:50.300Z,-.11
2023-01-17T06:34:21.345Z,-.11
2023-01-17T06:34:52.277Z,-.11
2023-01-17T06:35:23.296Z,-.11
2023-01-17T06:35:54.277Z,-.11
2023-01-17T06:36:25.290Z,-.11
2023-01-17T06:36:56.285Z,-.11
2023-01-17T06:37:28.281Z,-.11
2023-01-17T06:37:58.295Z,-.11
2023-01-17T06:38:29.329Z,-.11
2023-01-17T06:39:00.323Z,-.11
2023-01-17T06:39:31.299Z,-.11
2023-01-17T06:40:02.418Z,-.11
2023-01-17T06:40:33.285Z,-.11
2023-01-17T06:41:04.361Z,-.11
2023-01-17T06:41:35.265Z,-.11
2023-01-17T06:42:06.341Z,-.11
2023-01-17T06:42:38.629Z,-.11
2023-01-17T06:43:08.323Z,-.11
2023-01-17T06:43:39.285Z,-.11
2023-01-17T06:44:10.409Z,-.11
2023-01-17T06:44:41.300Z,-.11
2023-01-17T06:45:24.629Z,-.11
2023-01-17T06:45:43.298Z,-.11
2023-01-17T06:46:14.384Z,-.11
2023-01-17T06:46:45.393Z,-.11
2023-01-17T06:47:16.288Z,-.11
2023-01-17T06:47:48.275Z,-.11
2023-01-17T06:48:18.278Z,-.11
2023-01-17T06:48:49.304Z,-.11
2023-01-17T06:49:20.279Z,-.11
2023-01-17T06:49:51.332Z,-.11
2023-01-17T06:50:22.307Z,-.22
2023-01-17T06:50:53.321Z,-.22
2023-01-17T06:51:24.305Z,-.22
2023-01-17T06:51:55.282Z,-.22
2023-01-17T06:52:26.311Z,-.22
2023-01-17T06:52:58.295Z,-.22
2023-01-17T06:53:28.302Z,-.22
2023-01-17T06:53:59.351Z,-.22
2023-01-17T06:54:30.295Z,-.22